Lima Campos, Brazil
Current Conditions -  °F | °C
As of 7:00 PM on Sunday 21 Dec 2014 (Local Time) from SBTE Reporting Station
Clear Clear  
Wind Chill: 95°   Ceiling: Unl
Heat Index: 95°   Visibility: 6mi
Dew Point: 57°   Wind: 3mph
Humidity: 28%   Direction: 140°SE
Pressure: 29.74"   Gusts: NA
Location:  4.52°S, 44.47°W
Report Text: SBTE 212200Z 14003KT CAVOK 35/14 Q1007
Loading
Personal Weather Stations






























Interactive Weather Map New forecast layout! Learn more

10-Day Weather Forecast

Advertisements
Track Severe Weather on mobile